TimeCST,TemperatureF,Dew PointF,Humidity,Sea Level PressureIn,VisibilityMPH,Wind Direction,Wind SpeedMPH,Gust SpeedMPH,PrecipitationIn,Events,Conditions,WindDirDegrees,DateUTC
12:53 AM,41.0,39.0,93,30.17,10.0,Calm,Calm,-,N/A,,Clear,0,2012-11-20 06:53:00
2:53 AM,41.0,39.0,93,30.17,10.0,Calm,Calm,-,N/A,,Partly Cloudy,0,2012-11-20 08:53:00
3:53 AM,42.1,39.9,92,30.16,10.0,Calm,Calm,-,N/A,,Mostly Cloudy,0,2012-11-20 09:53:00
4:53 AM,39.9,37.9,93,30.16,10.0,Calm,Calm,-,N/A,,Clear,0,2012-11-20 10:53:00
5:53 AM,43.0,41.0,93,30.18,10.0,NNW,3.5,-,N/A,,Overcast,330,2012-11-20 11:53:00
6:53 AM,43.0,41.0,93,30.20,10.0,Calm,Calm,-,N/A,,Clear,0,2012-11-20 12:53:00
7:53 AM,55.0,48.9,80,30.21,10.0,Calm,Calm,-,N/A,,Clear,0,2012-11-20 13:53:00
8:53 AM,61.0,51.1,70,30.19,10.0,Calm,Calm,-,N/A,,Clear,0,2012-11-20 14:53:00
9:53 AM,66.0,53.1,63,30.19,10.0,Calm,Calm,-,N/A,,Clear,0,2012-11-20 15:53:00
10:53 AM,68.0,53.1,59,30.17,10.0,Calm,Calm,-,N/A,,Partly Cloudy,0,2012-11-20 16:53:00
11:53 AM,69.1,52.0,54,30.15,10.0,NNW,5.8,-,N/A,,Scattered Clouds,330,2012-11-20 17:53:00
12:53 PM,68.0,52.0,56,30.12,10.0,Calm,Calm,-,N/A,,Partly Cloudy,0,2012-11-20 18:53:00
1:53 PM,66.9,50.0,54,30.11,10.0,NNW,5.8,-,N/A,,Partly Cloudy,330,2012-11-20 19:53:00
2:53 PM,66.9,51.1,57,30.11,10.0,NNW,6.9,-,N/A,,Clear,340,2012-11-20 20:53:00
3:53 PM,64.0,54.0,70,30.11,10.0,NNW,3.5,-,0.00,Rain,Light Rain,330,2012-11-20 21:53:00
4:53 PM,61.0,55.9,83,30.11,10.0,Calm,Calm,-,0.00,Rain,Light Rain,0,2012-11-20 22:53:00
5:53 PM,57.9,54.0,87,30.12,10.0,NW,3.5,-,0.00,,Clear,320,2012-11-20 23:53:00
6:53 PM,57.9,54.0,87,30.14,10.0,Calm,Calm,-,N/A,,Mostly Cloudy,0,2012-11-21 00:53:00
7:53 PM,57.9,53.1,84,30.14,10.0,NNW,4.6,-,N/A,,Mostly Cloudy,330,2012-11-21 01:53:00
8:53 PM,55.0,52.0,89,30.14,10.0,Calm,Calm,-,N/A,,Mostly Cloudy,0,2012-11-21 02:53:00
9:53 PM,57.0,53.1,87,30.16,10.0,NNW,4.6,-,N/A,,Overcast,330,2012-11-21 03:53:00
10:53 PM,55.0,51.1,86,30.15,10.0,NNW,4.6,-,N/A,,Mostly Cloudy,330,2012-11-21 04:53:00
11:53 PM,55.0,50.0,83,30.14,10.0,NNW,4.6,-,N/A,,Scattered Clouds,340,2012-11-21 05:53:00